createdAt,value
2023-06-30T00:00:12.875Z,24.10
2023-06-30T00:02:42.389Z,24.10
2023-06-30T00:05:12.381Z,24.20
2023-06-30T00:07:41.004Z,24.20
2023-06-30T00:10:10.445Z,24.20
2023-06-30T00:12:38.809Z,24.20
2023-06-30T00:15:07.839Z,24.10
2023-06-30T00:17:36.591Z,24.20
2023-06-30T00:20:07.022Z,24.20
2023-06-30T00:22:37.206Z,24.20
2023-06-30T00:25:06.090Z,24.20
2023-06-30T00:27:34.451Z,24.20
2023-06-30T00:30:02.500Z,24.20
2023-06-30T00:32:32.880Z,24.20
2023-06-30T00:35:01.200Z,24.10
2023-06-30T00:37:29.283Z,24.10
2023-06-30T00:39:58.670Z,24.10
2023-06-30T00:42:26.682Z,24.10
2023-06-30T00:44:55.245Z,24.00
2023-06-30T00:47:23.577Z,24.00
2023-06-30T00:49:51.601Z,24.00
2023-06-30T00:52:19.691Z,23.90
2023-06-30T00:54:47.729Z,23.90
2023-06-30T00:57:17.177Z,23.80
2023-06-30T00:59:45.219Z,23.70
2023-06-30T01:02:21.701Z,23.70
2023-06-30T01:04:59.815Z,23.60
2023-06-30T01:07:33.496Z,23.60
2023-06-30T01:10:06.265Z,23.50
2023-06-30T01:12:36.885Z,23.50
2023-06-30T01:15:06.496Z,23.40
2023-06-30T01:17:35.989Z,23.40
2023-06-30T01:20:07.946Z,23.30
2023-06-30T01:22:44.925Z,23.30
2023-06-30T01:25:19.686Z,23.20
2023-06-30T01:27:50.449Z,23.10
2023-06-30T01:30:19.848Z,23.10
2023-06-30T01:32:51.567Z,23.10
2023-06-30T01:35:20.034Z,23.00
2023-06-30T01:37:48.043Z,23.00
2023-06-30T01:40:18.104Z,23.00
2023-06-30T01:42:48.608Z,22.90
2023-06-30T01:45:18.113Z,22.80
2023-06-30T01:47:46.385Z,22.80
2023-06-30T01:50:15.519Z,22.70
2023-06-30T01:52:44.105Z,22.70
2023-06-30T01:55:12.134Z,22.70
2023-06-30T01:57:40.168Z,22.70
2023-06-30T02:00:10.748Z,22.70
2023-06-30T02:02:39.044Z,22.70
2023-06-30T02:05:07.428Z,22.60
2023-06-30T02:07:35.635Z,22.60
2023-06-30T02:10:03.945Z,22.50
2023-06-30T02:12:31.960Z,22.50
2023-06-30T02:14:59.973Z,22.50
2023-06-30T02:17:32.396Z,22.50
2023-06-30T02:20:00.705Z,22.40
2023-06-30T02:22:28.863Z,22.40
2023-06-30T02:24:57.552Z,22.40
2023-06-30T02:27:25.941Z,22.40
2023-06-30T02:29:53.947Z,22.40
2023-06-30T02:32:21.985Z,22.30
2023-06-30T02:34:51.430Z,22.30
2023-06-30T02:37:19.449Z,22.30
2023-06-30T02:39:47.455Z,22.30
2023-06-30T02:42:15.432Z,22.30
2023-06-30T02:44:43.435Z,22.30
2023-06-30T02:47:11.486Z,22.30
2023-06-30T02:49:39.496Z,22.30
2023-06-30T02:52:09.503Z,22.30
2023-06-30T02:54:37.930Z,22.30
2023-06-30T02:57:06.673Z,22.30
2023-06-30T02:59:34.645Z,22.30
2023-06-30T03:02:03.938Z,22.40
2023-06-30T03:04:33.062Z,22.40
2023-06-30T03:07:01.106Z,22.30
2023-06-30T03:09:30.575Z,22.30
2023-06-30T03:11:58.593Z,22.40
2023-06-30T03:14:26.599Z,22.40
2023-06-30T03:16:54.681Z,22.40
2023-06-30T03:19:22.723Z,22.40
2023-06-30T03:21:50.689Z,22.40
2023-06-30T03:24:18.728Z,22.40
2023-06-30T03:26:48.911Z,22.40
2023-06-30T03:29:16.899Z,22.40
2023-06-30T03:31:44.864Z,22.40
2023-06-30T03:34:13.471Z,22.50
2023-06-30T03:36:41.468Z,22.50
2023-06-30T03:39:09.513Z,22.50
2023-06-30T03:41:37.644Z,22.50
2023-06-30T03:44:07.092Z,22.50
2023-06-30T03:46:35.421Z,22.50
2023-06-30T03:49:03.520Z,22.50
2023-06-30T03:51:31.683Z,22.50
2023-06-30T03:53:59.778Z,22.50
2023-06-30T03:56:27.774Z,22.50
2023-06-30T03:58:55.778Z,22.50
2023-06-30T04:01:26.830Z,22.50
2023-06-30T04:03:55.179Z,22.50
2023-06-30T04:06:23.321Z,22.50
2023-06-30T04:08:51.288Z,22.50
2023-06-30T04:11:19.270Z,22.60
2023-06-30T04:13:48.708Z,22.60
2023-06-30T04:16:18.566Z,22.60
2023-06-30T04:18:47.980Z,22.60
2023-06-30T04:21:15.996Z,22.70
2023-06-30T04:23:43.967Z,22.70
2023-06-30T04:26:12.000Z,22.70
2023-06-30T04:28:40.017Z,22.70
2023-06-30T04:31:08.084Z,22.70
2023-06-30T04:33:36.125Z,22.80
2023-06-30T04:36:08.344Z,22.80
2023-06-30T04:38:36.605Z,22.80
2023-06-30T04:41:04.787Z,22.80
2023-06-30T04:43:33.973Z,22.90
2023-06-30T04:46:02.081Z,22.90
2023-06-30T04:48:30.190Z,23.00
2023-06-30T04:50:58.160Z,23.10
2023-06-30T04:53:27.530Z,23.10
2023-06-30T04:55:55.647Z,23.10
2023-06-30T04:58:23.667Z,23.20
2023-06-30T05:00:51.712Z,23.30
2023-06-30T05:03:20.456Z,23.40
2023-06-30T05:05:48.526Z,23.50
2023-06-30T05:08:16.628Z,23.60
2023-06-30T05:10:46.070Z,23.60
2023-06-30T05:13:14.083Z,23.60
2023-06-30T05:15:42.242Z,23.50
2023-06-30T05:18:10.375Z,23.50
2023-06-30T05:20:40.406Z,23.50
2023-06-30T05:23:08.459Z,23.60
2023-06-30T05:25:36.682Z,23.70
2023-06-30T05:28:06.343Z,23.70
2023-06-30T05:30:34.334Z,23.70
2023-06-30T05:33:02.392Z,23.70
2023-06-30T05:35:30.372Z,23.80
2023-06-30T05:37:58.395Z,23.90
2023-06-30T05:40:26.388Z,24.00
2023-06-30T05:42:54.345Z,24.10
2023-06-30T05:45:23.789Z,24.20
2023-06-30T05:47:51.770Z,24.30
2023-06-30T05:50:23.002Z,24.40
2023-06-30T05:52:51.162Z,24.50
2023-06-30T05:55:19.220Z,24.60
2023-06-30T05:57:47.244Z,24.70
2023-06-30T06:00:16.461Z,24.80
2023-06-30T06:02:45.888Z,24.80
2023-06-30T06:05:14.082Z,24.80
2023-06-30T06:07:42.471Z,24.80
2023-06-30T06:10:11.252Z,25.00
2023-06-30T06:12:41.009Z,25.00
2023-06-30T06:15:10.293Z,25.10
2023-06-30T06:17:38.345Z,25.10
2023-06-30T06:20:08.852Z,25.20
2023-06-30T06:22:36.856Z,25.20
2023-06-30T06:25:05.390Z,25.20
2023-06-30T06:27:35.856Z,25.20
2023-06-30T06:30:05.236Z,25.30
2023-06-30T06:32:33.302Z,25.30
2023-06-30T06:35:01.382Z,25.30
2023-06-30T06:37:30.738Z,25.40
2023-06-30T06:39:58.735Z,25.40
2023-06-30T06:42:26.704Z,25.40
2023-06-30T06:44:54.825Z,25.40
2023-06-30T06:48:00.392Z,25.40
2023-06-30T06:50:28.463Z,25.40
2023-06-30T06:52:57.885Z,25.40
2023-06-30T06:55:25.934Z,25.40
2023-06-30T06:57:55.024Z,25.50
2023-06-30T07:00:23.268Z,25.50
2023-06-30T07:02:51.357Z,25.60
2023-06-30T07:05:19.560Z,25.60
2023-06-30T07:07:48.199Z,25.50
2023-06-30T07:10:17.747Z,25.40
2023-06-30T07:12:45.719Z,25.40
2023-06-30T07:15:13.748Z,25.20
2023-06-30T07:17:42.653Z,25.20
2023-06-30T07:20:12.112Z,25.10
2023-06-30T07:22:40.092Z,25.00
2023-06-30T07:25:08.607Z,24.90
2023-06-30T07:27:39.849Z,24.70
2023-06-30T07:30:08.823Z,24.70
2023-06-30T07:32:36.826Z,24.60
2023-06-30T07:35:05.162Z,24.60
2023-06-30T07:37:33.178Z,24.60
2023-06-30T07:40:15.392Z,24.70
2023-06-30T07:42:46.752Z,24.70
2023-06-30T07:45:16.638Z,24.70
2023-06-30T07:47:46.880Z,24.60
2023-06-30T07:50:16.358Z,24.60
2023-06-30T07:52:45.749Z,24.60
2023-06-30T07:55:14.803Z,24.70
2023-06-30T07:57:42.888Z,24.70
2023-06-30T08:00:16.545Z,24.80
2023-06-30T08:02:44.807Z,24.70
2023-06-30T08:05:13.367Z,24.70
2023-06-30T08:07:48.627Z,24.60
2023-06-30T08:10:18.080Z,24.60
2023-06-30T08:12:46.278Z,24.60
2023-06-30T08:15:15.815Z,24.60
2023-06-30T08:17:54.694Z,24.60
2023-06-30T08:20:25.809Z,24.60
2023-06-30T08:22:54.454Z,24.60
2023-06-30T08:25:24.530Z,24.70
2023-06-30T08:27:53.232Z,24.80
2023-06-30T08:30:24.894Z,24.80
2023-06-30T08:32:55.518Z,24.90
2023-06-30T08:35:23.990Z,25.10
2023-06-30T08:37:53.480Z,25.20
2023-06-30T08:40:26.661Z,25.40
2023-06-30T08:42:57.331Z,25.60
2023-06-30T08:45:28.947Z,25.80
2023-06-30T08:48:00.756Z,25.90
2023-06-30T08:50:29.708Z,26.00
2023-06-30T08:52:57.752Z,26.00
2023-06-30T08:55:25.848Z,26.00
2023-06-30T08:57:57.358Z,26.10
2023-06-30T09:00:27.946Z,26.20
2023-06-30T09:02:57.324Z,26.30
2023-06-30T09:05:26.720Z,26.50
2023-06-30T09:07:56.292Z,26.60
2023-06-30T09:10:26.650Z,26.70
2023-06-30T09:12:56.400Z,26.70
2023-06-30T09:15:26.074Z,26.80
2023-06-30T09:17:56.966Z,26.80
2023-06-30T09:20:25.156Z,26.90
2023-06-30T09:22:56.830Z,26.90
2023-06-30T09:25:45.064Z,27.00
2023-06-30T09:28:15.590Z,27.00
2023-06-30T09:30:47.047Z,26.90
2023-06-30T09:33:17.563Z,26.80
2023-06-30T09:35:47.050Z,26.70
2023-06-30T09:38:16.406Z,26.70
2023-06-30T09:40:45.490Z,26.60
2023-06-30T09:43:19.300Z,26.60
2023-06-30T09:45:49.454Z,26.50
2023-06-30T09:48:19.307Z,26.50
2023-06-30T09:50:47.315Z,26.60
2023-06-30T09:53:20.796Z,26.60
2023-06-30T09:55:50.632Z,26.60
2023-06-30T09:58:20.108Z,26.50
2023-06-30T10:00:48.922Z,26.40
2023-06-30T10:03:18.363Z,26.30
2023-06-30T10:05:49.425Z,26.20
2023-06-30T10:08:18.260Z,26.10
2023-06-30T10:10:46.297Z,26.00
2023-06-30T10:13:17.434Z,25.80
2023-06-30T10:15:46.461Z,25.60
2023-06-30T10:18:18.256Z,25.40
2023-06-30T10:20:50.011Z,25.20
2023-06-30T10:23:20.606Z,24.90
2023-06-30T10:25:50.260Z,24.70
2023-06-30T10:28:19.176Z,24.50
2023-06-30T10:30:48.082Z,24.50
2023-06-30T10:33:16.154Z,24.40
2023-06-30T10:35:45.136Z,24.50
2023-06-30T10:38:15.131Z,24.60
2023-06-30T10:40:43.206Z,24.90
2023-06-30T10:43:12.262Z,25.20
2023-06-30T10:46:06.430Z,25.30
2023-06-30T10:48:35.292Z,25.50
2023-06-30T10:51:06.513Z,25.50
2023-06-30T10:53:37.525Z,25.40
2023-06-30T10:56:06.052Z,25.20
2023-06-30T10:58:42.896Z,25.00
2023-06-30T11:01:10.880Z,24.70
2023-06-30T11:04:13.817Z,24.40
2023-06-30T11:06:47.332Z,24.20
2023-06-30T11:09:16.696Z,23.90
2023-06-30T11:11:51.489Z,23.80
2023-06-30T11:14:33.960Z,23.80
2023-06-30T11:17:06.555Z,23.80
2023-06-30T11:19:36.874Z,23.80
2023-06-30T11:22:22.941Z,23.80
2023-06-30T11:24:52.450Z,23.90
2023-06-30T11:27:23.380Z,24.00
2023-06-30T11:29:52.328Z,24.00
2023-06-30T11:32:26.754Z,24.20
2023-06-30T11:34:56.474Z,24.20
2023-06-30T11:37:24.643Z,24.20
2023-06-30T11:39:54.380Z,24.10
2023-06-30T11:42:22.961Z,24.10
2023-06-30T11:44:51.650Z,24.10
2023-06-30T11:47:23.810Z,24.10
2023-06-30T11:49:52.504Z,24.20
2023-06-30T11:52:21.401Z,24.30
2023-06-30T11:54:49.411Z,24.40
2023-06-30T11:57:18.865Z,24.40
2023-06-30T11:59:47.280Z,24.50
2023-06-30T12:02:15.355Z,24.60
2023-06-30T12:04:49.405Z,24.80
2023-06-30T12:07:17.900Z,25.10
2023-06-30T12:09:47.949Z,25.40
2023-06-30T12:12:29.395Z,25.50
2023-06-30T12:14:58.281Z,25.60
2023-06-30T12:17:30.040Z,25.40
2023-06-30T12:19:58.270Z,25.20
2023-06-30T12:22:28.345Z,25.00
2023-06-30T12:24:57.270Z,24.80
2023-06-30T12:27:27.327Z,24.50
2023-06-30T12:29:56.970Z,24.20
2023-06-30T12:32:29.619Z,24.00
2023-06-30T12:35:02.305Z,23.90
2023-06-30T12:37:32.317Z,23.80
2023-06-30T12:40:00.920Z,23.80
2023-06-30T12:42:30.725Z,23.80
2023-06-30T12:45:00.500Z,23.80
2023-06-30T12:47:28.603Z,23.80
2023-06-30T12:49:56.677Z,23.70
2023-06-30T12:52:24.690Z,23.60
2023-06-30T12:54:53.769Z,23.60
2023-06-30T12:57:21.828Z,23.50
2023-06-30T12:59:49.802Z,23.40
2023-06-30T13:02:19.403Z,23.40
2023-06-30T13:04:47.388Z,23.50
2023-06-30T13:07:15.469Z,23.50
2023-06-30T13:09:43.537Z,23.50
2023-06-30T13:12:11.791Z,23.50
2023-06-30T13:14:39.797Z,23.50
2023-06-30T13:17:08.516Z,23.40
2023-06-30T13:19:38.078Z,23.30
2023-06-30T13:22:06.946Z,23.30
2023-06-30T13:24:34.961Z,23.30
2023-06-30T13:27:03.000Z,23.40
2023-06-30T13:29:31.041Z,23.40
2023-06-30T13:31:59.001Z,23.40
2023-06-30T13:34:27.017Z,23.40
2023-06-30T13:36:56.481Z,23.40
2023-06-30T13:39:24.538Z,23.50
2023-06-30T13:41:52.524Z,23.50
2023-06-30T13:44:20.558Z,23.50
2023-06-30T13:46:48.558Z,23.50
2023-06-30T13:49:16.610Z,23.50
2023-06-30T13:51:44.586Z,23.50
2023-06-30T13:54:14.006Z,23.50
2023-06-30T13:56:42.023Z,23.60
2023-06-30T13:59:09.998Z,23.60
2023-06-30T14:01:38.088Z,23.60
2023-06-30T14:04:06.378Z,23.60
2023-06-30T14:06:34.542Z,23.50
2023-06-30T14:09:02.545Z,23.40
2023-06-30T14:11:31.993Z,23.30
2023-06-30T14:14:04.396Z,23.20
2023-06-30T14:16:32.859Z,23.10
2023-06-30T14:19:01.033Z,23.10
2023-06-30T14:21:31.697Z,23.20
2023-06-30T14:24:00.345Z,23.30
2023-06-30T14:26:30.948Z,23.40
2023-06-30T14:29:00.416Z,23.50
2023-06-30T14:31:28.439Z,23.60
2023-06-30T14:33:56.476Z,23.80
2023-06-30T14:36:24.491Z,23.90
2023-06-30T14:38:52.507Z,24.00
2023-06-30T14:41:20.570Z,24.20
2023-06-30T14:43:48.574Z,24.40
2023-06-30T14:46:18.026Z,24.60
2023-06-30T14:48:46.047Z,24.80
2023-06-30T14:51:14.049Z,25.00
2023-06-30T14:53:42.160Z,25.20
2023-06-30T14:56:10.161Z,25.50
2023-06-30T14:58:38.487Z,25.70
2023-06-30T15:01:06.976Z,25.90
2023-06-30T15:03:36.791Z,25.90
2023-06-30T15:06:04.944Z,25.80
2023-06-30T15:08:33.110Z,25.70
2023-06-30T15:11:01.858Z,25.60
2023-06-30T15:13:30.008Z,25.40
2023-06-30T15:15:58.639Z,25.10
2023-06-30T15:18:26.804Z,24.60
2023-06-30T15:20:56.160Z,24.30
2023-06-30T15:23:24.283Z,24.00
2023-06-30T15:25:52.414Z,23.80
2023-06-30T15:28:20.443Z,23.70
2023-06-30T15:30:48.754Z,23.60
2023-06-30T15:33:17.196Z,23.50
2023-06-30T15:35:45.608Z,23.40
2023-06-30T15:38:15.239Z,23.40
2023-06-30T15:40:43.461Z,23.30
2023-06-30T15:43:11.550Z,23.20
2023-06-30T15:45:39.544Z,23.00
2023-06-30T15:48:14.001Z,22.90
2023-06-30T15:50:42.506Z,22.70
2023-06-30T15:53:11.805Z,22.60
2023-06-30T15:55:43.516Z,22.50
2023-06-30T15:58:11.784Z,22.50
2023-06-30T16:00:40.526Z,22.40
2023-06-30T16:03:08.605Z,22.50
2023-06-30T16:05:37.170Z,22.60
2023-06-30T16:08:05.605Z,22.70
2023-06-30T16:10:33.669Z,22.70
2023-06-30T16:13:06.322Z,22.60
2023-06-30T16:15:36.250Z,22.60
2023-06-30T16:18:04.590Z,22.50
2023-06-30T16:20:32.616Z,22.40
2023-06-30T16:23:00.656Z,22.40
2023-06-30T16:25:28.648Z,22.40
2023-06-30T16:27:56.688Z,22.40
2023-06-30T16:30:30.964Z,22.30
2023-06-30T16:32:59.969Z,22.20
2023-06-30T16:35:28.500Z,22.20
2023-06-30T16:37:57.690Z,22.10
2023-06-30T16:40:25.877Z,22.10
2023-06-30T16:42:54.048Z,22.00
2023-06-30T16:45:22.588Z,22.00
2023-06-30T16:47:52.023Z,22.10
2023-06-30T16:50:20.050Z,22.10
2023-06-30T16:52:48.140Z,22.20
2023-06-30T16:55:17.544Z,22.50
2023-06-30T16:57:45.553Z,22.80
2023-06-30T17:00:14.609Z,23.10
2023-06-30T17:02:42.731Z,23.60
2023-06-30T17:05:13.687Z,23.90
2023-06-30T17:07:41.715Z,24.00
2023-06-30T17:10:10.358Z,24.10
2023-06-30T17:12:39.656Z,24.10
2023-06-30T17:15:10.368Z,24.00
2023-06-30T17:17:38.533Z,24.00
2023-06-30T17:20:07.815Z,23.90
2023-06-30T17:22:37.191Z,23.90
2023-06-30T17:25:06.177Z,24.00
2023-06-30T17:27:34.413Z,24.20
2023-06-30T17:30:02.429Z,24.30
2023-06-30T17:32:30.516Z,24.30
2023-06-30T17:34:58.552Z,24.20
2023-06-30T17:37:26.582Z,24.20
2023-06-30T17:39:55.946Z,24.10
2023-06-30T17:42:23.967Z,24.00
2023-06-30T17:44:52.040Z,23.90
2023-06-30T17:47:20.034Z,23.70
2023-06-30T17:49:48.400Z,23.60
2023-06-30T17:52:16.963Z,23.50
2023-06-30T17:54:45.191Z,23.30
2023-06-30T17:57:15.335Z,23.10
2023-06-30T17:59:43.331Z,23.10
2023-06-30T18:02:11.393Z,23.10
2023-06-30T18:04:39.571Z,23.10
2023-06-30T18:07:09.939Z,23.20
2023-06-30T18:09:39.513Z,23.20
2023-06-30T18:12:08.478Z,23.20
2023-06-30T18:14:38.611Z,23.20
2023-06-30T18:17:07.361Z,23.20
2023-06-30T18:19:35.455Z,23.20
2023-06-30T18:22:03.923Z,23.30
2023-06-30T18:24:31.948Z,23.30
2023-06-30T18:26:59.949Z,23.20
2023-06-30T18:29:27.969Z,23.10
2023-06-30T18:32:00.300Z,23.00
2023-06-30T18:34:30.063Z,22.80
2023-06-30T18:36:58.107Z,22.70
2023-06-30T18:39:26.172Z,22.60
2023-06-30T18:41:55.851Z,22.50
2023-06-30T18:44:25.949Z,22.40
2023-06-30T18:46:54.081Z,22.30
2023-06-30T18:49:24.828Z,22.20
2023-06-30T18:51:55.132Z,22.10
2023-06-30T18:54:23.414Z,22.10
2023-06-30T18:56:51.937Z,22.10
2023-06-30T18:59:19.962Z,22.00
2023-06-30T19:01:48.223Z,22.00
2023-06-30T19:04:16.686Z,21.90
2023-06-30T19:06:46.410Z,21.90
2023-06-30T19:09:14.660Z,21.80
2023-06-30T19:11:42.738Z,21.80
2023-06-30T19:14:10.850Z,21.80
2023-06-30T19:16:38.893Z,21.80
2023-06-30T19:19:06.864Z,21.80
2023-06-30T19:21:34.856Z,21.80
2023-06-30T19:24:04.319Z,21.80
2023-06-30T19:26:32.336Z,21.80
2023-06-30T19:29:00.328Z,21.70
2023-06-30T19:31:28.433Z,21.70
2023-06-30T19:33:56.527Z,21.70
2023-06-30T19:36:26.231Z,21.70
2023-06-30T19:38:54.270Z,21.70
2023-06-30T19:41:24.657Z,21.60
2023-06-30T19:43:52.873Z,21.60
2023-06-30T19:46:20.980Z,21.60
2023-06-30T19:48:49.115Z,21.60
2023-06-30T19:51:17.145Z,21.60
2023-06-30T19:53:45.196Z,21.60
2023-06-30T19:56:14.803Z,21.60
2023-06-30T19:58:44.855Z,21.60
2023-06-30T20:01:12.865Z,21.50
2023-06-30T20:03:41.160Z,21.50
2023-06-30T20:06:09.449Z,21.50
2023-06-30T20:08:37.432Z,21.50
2023-06-30T20:11:05.563Z,21.50
2023-06-30T20:13:33.566Z,21.50
2023-06-30T20:16:04.153Z,21.50
2023-06-30T20:18:32.169Z,21.50
2023-06-30T20:21:00.171Z,21.40
2023-06-30T20:23:28.211Z,21.40
2023-06-30T20:25:56.585Z,21.40
2023-06-30T20:28:24.578Z,21.40
2023-06-30T20:30:52.642Z,21.30
2023-06-30T20:33:22.075Z,21.30
2023-06-30T20:35:50.121Z,21.30
2023-06-30T20:38:19.177Z,21.30
2023-06-30T20:40:47.806Z,21.30
2023-06-30T20:43:16.296Z,21.20
2023-06-30T20:45:44.319Z,21.20
2023-06-30T20:48:12.402Z,21.20
2023-06-30T20:50:41.908Z,21.20
2023-06-30T20:53:10.180Z,21.20
2023-06-30T20:55:38.267Z,21.20
2023-06-30T20:58:06.265Z,21.20
2023-06-30T21:00:34.246Z,21.10
2023-06-30T21:03:02.392Z,21.10
2023-06-30T21:05:30.428Z,21.10
2023-06-30T21:07:59.828Z,21.10
2023-06-30T21:10:27.875Z,21.10
2023-06-30T21:13:00.567Z,21.00
2023-06-30T21:15:29.180Z,21.00
2023-06-30T21:17:57.242Z,21.00
2023-06-30T21:20:25.232Z,20.90
2023-06-30T21:22:53.240Z,20.90
2023-06-30T21:25:22.740Z,20.80
2023-06-30T21:27:50.774Z,20.80
2023-06-30T21:30:18.866Z,20.70
2023-06-30T21:32:46.911Z,20.70
2023-06-30T21:35:14.973Z,20.70
2023-06-30T21:37:42.996Z,20.60
2023-06-30T21:40:11.352Z,20.60
2023-06-30T21:42:40.795Z,20.60
2023-06-30T21:45:09.555Z,20.60
2023-06-30T21:47:37.633Z,20.60
2023-06-30T21:50:07.247Z,20.60
2023-06-30T21:52:35.446Z,20.70
2023-06-30T21:55:04.392Z,20.60
2023-06-30T21:57:32.421Z,20.70
2023-06-30T22:00:01.792Z,20.70
2023-06-30T22:02:29.947Z,20.70
2023-06-30T22:04:58.318Z,20.70
2023-06-30T22:07:26.419Z,20.70
2023-06-30T22:09:54.395Z,20.70
2023-06-30T22:12:22.368Z,20.70
2023-06-30T22:14:50.315Z,20.70
2023-06-30T22:17:19.738Z,20.70
2023-06-30T22:19:47.775Z,20.70
2023-06-30T22:22:15.755Z,20.70
2023-06-30T22:24:43.778Z,20.70
2023-06-30T22:27:11.802Z,20.70
2023-06-30T22:29:40.002Z,20.70
2023-06-30T22:32:08.728Z,20.80
2023-06-30T22:34:38.097Z,20.80
2023-06-30T22:37:06.819Z,20.70
2023-06-30T22:39:34.822Z,20.70
2023-06-30T22:42:02.814Z,20.60
2023-06-30T22:44:30.822Z,20.60
2023-06-30T22:46:58.845Z,20.60
2023-06-30T22:49:26.873Z,20.50
2023-06-30T22:51:56.511Z,20.50
2023-06-30T22:54:24.543Z,20.50
2023-06-30T22:56:52.723Z,20.60
2023-06-30T22:59:20.765Z,20.60
2023-06-30T23:01:48.740Z,20.60
2023-06-30T23:04:16.860Z,20.60
2023-06-30T23:06:45.037Z,20.60
2023-06-30T23:09:14.366Z,20.60
2023-06-30T23:11:42.336Z,20.60
2023-06-30T23:14:10.390Z,20.60
2023-06-30T23:16:39.372Z,20.60
2023-06-30T23:19:08.266Z,20.60
2023-06-30T23:21:37.175Z,20.60
2023-06-30T23:24:10.564Z,20.50
2023-06-30T23:26:41.433Z,20.50
2023-06-30T23:29:10.570Z,20.50
2023-06-30T23:31:39.530Z,20.50
2023-06-30T23:34:07.890Z,20.50
2023-06-30T23:36:36.421Z,20.50
2023-06-30T23:39:04.967Z,20.40
2023-06-30T23:41:33.676Z,20.40
2023-06-30T23:44:03.186Z,20.30
2023-06-30T23:46:31.602Z,20.30
2023-06-30T23:48:59.885Z,20.30
2023-06-30T23:51:27.856Z,20.20
2023-06-30T23:53:55.845Z,20.20
2023-06-30T23:56:23.824Z,20.20
2023-06-30T23:58:51.832Z,20.20
